createdAt,value
2018-10-21T00:03:06.956Z,22.33
2018-10-21T00:08:10.486Z,25.27
2018-10-21T00:13:14.039Z,25.93
2018-10-21T00:18:17.617Z,23.10
2018-10-21T00:23:21.136Z,28.70
2018-10-21T00:28:24.886Z,34.10
2018-10-21T00:33:28.415Z,29.50
2018-10-21T00:38:32.119Z,29.63
2018-10-21T00:43:35.722Z,27.73
2018-10-21T00:48:39.518Z,28.70
2018-10-21T00:53:43.098Z,31.70
2018-10-21T00:58:46.624Z,27.27
2018-10-21T01:03:50.228Z,33.67
2018-10-21T01:08:53.899Z,31.93
2018-10-21T01:13:57.391Z,25.20
2018-10-21T01:19:01.255Z,25.50
2018-10-21T01:24:04.842Z,34.00
2018-10-21T01:29:08.415Z,32.30
2018-10-21T01:34:11.977Z,30.00
2018-10-21T01:39:15.561Z,30.07
2018-10-21T01:44:19.092Z,29.63
2018-10-21T01:49:22.649Z,27.00
2018-10-21T01:54:26.406Z,28.03
2018-10-21T01:59:29.909Z,27.13
2018-10-21T02:04:33.517Z,29.67
2018-10-21T02:09:37.020Z,26.50
2018-10-21T02:14:40.568Z,28.77
2018-10-21T02:19:44.275Z,28.13
2018-10-21T02:24:47.807Z,26.87
2018-10-21T02:29:51.321Z,27.97
2018-10-21T02:34:54.831Z,25.23
2018-10-21T02:39:58.357Z,28.37
2018-10-21T02:45:01.919Z,24.33
2018-10-21T02:50:06.018Z,26.17
2018-10-21T02:55:09.548Z,28.60
2018-10-21T03:00:19.223Z,27.63
2018-10-21T03:05:22.761Z,31.03
2018-10-21T03:10:26.229Z,32.90
2018-10-21T03:15:29.754Z,33.70
2018-10-21T03:20:33.307Z,31.20
2018-10-21T03:25:36.900Z,33.30
2018-10-21T03:30:40.413Z,33.53
2018-10-21T03:35:55.707Z,28.27
2018-10-21T03:40:59.218Z,36.97
2018-10-21T03:46:03.135Z,28.23
2018-10-21T03:51:06.933Z,31.57
2018-10-21T03:56:10.762Z,30.80
2018-10-21T04:01:14.361Z,29.13
2018-10-21T04:06:17.842Z,29.17
2018-10-21T04:11:21.449Z,26.00
2018-10-21T04:16:25.008Z,27.43
2018-10-21T04:21:28.531Z,25.77
2018-10-21T04:26:32.029Z,22.77
2018-10-21T04:31:35.728Z,25.80
2018-10-21T04:36:39.217Z,26.43
2018-10-21T04:41:42.825Z,27.23
2018-10-21T04:46:46.347Z,28.17
2018-10-21T04:51:49.860Z,27.23
2018-10-21T04:56:53.469Z,26.90
2018-10-21T05:01:57.271Z,27.60
2018-10-21T05:07:00.783Z,25.27
2018-10-21T05:12:04.333Z,24.10
2018-10-21T05:17:07.857Z,29.23
2018-10-21T05:22:11.387Z,29.07
2018-10-21T05:27:15.049Z,24.40
2018-10-21T05:32:18.542Z,23.83
2018-10-21T05:37:22.171Z,23.60
2018-10-21T05:42:26.112Z,24.67
2018-10-21T05:47:29.719Z,25.70
2018-10-21T05:52:33.646Z,34.40
2018-10-21T05:57:37.239Z,29.87
2018-10-21T06:02:40.760Z,32.63
2018-10-21T06:07:44.333Z,30.73
2018-10-21T06:12:47.838Z,37.43
2018-10-21T06:17:51.374Z,36.67
2018-10-21T06:22:54.936Z,39.27
2018-10-21T06:27:58.475Z,33.20
2018-10-21T06:33:02.045Z,27.47
2018-10-21T06:38:06.074Z,30.63
2018-10-21T06:43:09.692Z,30.80
2018-10-21T06:48:13.364Z,36.37
2018-10-21T06:53:16.952Z,30.77
2018-10-21T06:58:20.493Z,31.23
2018-10-21T07:03:24.438Z,32.30
2018-10-21T07:08:27.943Z,29.77
2018-10-21T07:13:33.658Z,32.33
2018-10-21T07:18:37.308Z,24.93
2018-10-21T07:23:40.907Z,24.83
2018-10-21T07:28:44.418Z,27.73
2018-10-21T07:33:47.944Z,27.97
2018-10-21T07:38:51.471Z,28.93
2018-10-21T07:43:55.025Z,26.47
2018-10-21T07:48:58.580Z,24.83
2018-10-21T07:54:02.062Z,28.13
2018-10-21T07:59:05.700Z,26.87
2018-10-21T08:04:09.303Z,31.67
2018-10-21T08:09:13.280Z,30.07
2018-10-21T08:14:16.798Z,40.50
2018-10-21T08:19:20.297Z,30.97
2018-10-21T08:24:23.776Z,31.33
2018-10-21T08:29:27.318Z,31.13
2018-10-21T08:34:30.837Z,25.43
2018-10-21T08:39:34.368Z,28.70
2018-10-21T08:44:37.964Z,26.33
2018-10-21T08:49:41.572Z,21.23
2018-10-21T08:54:45.119Z,26.37
2018-10-21T08:59:48.633Z,29.83
2018-10-21T09:04:52.249Z,27.80
2018-10-21T09:09:55.938Z,26.03
2018-10-21T09:14:59.505Z,24.47
2018-10-21T09:20:03.054Z,32.80
2018-10-21T09:25:06.996Z,27.50
2018-10-21T09:35:29.507Z,28.73
2018-10-21T09:40:33.017Z,25.93
2018-10-21T09:45:36.669Z,31.57
2018-10-21T09:50:43.350Z,27.63
2018-10-21T09:55:46.944Z,25.07
2018-10-21T10:00:55.804Z,30.73
2018-10-21T10:05:59.346Z,28.80
2018-10-21T10:11:03.042Z,24.93
2018-10-21T10:16:06.508Z,26.27
2018-10-21T10:21:10.006Z,24.90
2018-10-21T10:26:13.533Z,24.13
2018-10-21T10:31:17.110Z,27.10
2018-10-21T10:36:20.757Z,25.83
2018-10-21T10:41:24.192Z,29.47
2018-10-21T10:46:27.773Z,20.97
2018-10-21T10:51:31.307Z,21.47
2018-10-21T10:56:34.865Z,30.10
2018-10-21T11:01:38.380Z,25.03
2018-10-21T11:06:42.000Z,28.13
2018-10-21T11:11:45.500Z,32.93
2018-10-21T11:16:49.009Z,25.27
2018-10-21T11:21:52.554Z,20.83
2018-10-21T11:26:56.052Z,22.33
2018-10-21T11:31:59.581Z,20.60
2018-10-21T11:37:03.169Z,18.80
2018-10-21T11:42:07.002Z,26.03
2018-10-21T11:47:10.536Z,21.30
2018-10-21T11:52:14.254Z,21.03
2018-10-21T11:57:17.726Z,23.07
2018-10-21T12:02:21.417Z,22.27
2018-10-21T12:07:24.957Z,21.23
2018-10-21T12:12:28.692Z,21.30
2018-10-21T12:17:32.191Z,20.73
2018-10-21T12:22:35.803Z,21.17
2018-10-21T12:27:39.284Z,20.13
2018-10-21T12:32:42.788Z,19.10
2018-10-21T12:37:46.372Z,21.27
2018-10-21T12:42:49.862Z,16.30
2018-10-21T12:47:53.369Z,16.90
2018-10-21T12:52:56.970Z,12.97
2018-10-21T12:58:00.622Z,11.17
2018-10-21T13:03:04.379Z,14.60
2018-10-21T13:08:07.954Z,14.07
2018-10-21T13:13:11.481Z,20.60
2018-10-21T13:18:14.997Z,12.30
2018-10-21T13:23:18.529Z,12.40
2018-10-21T13:28:22.206Z,9.30
2018-10-21T13:33:25.916Z,8.90
2018-10-21T13:38:29.422Z,9.50
2018-10-21T13:43:32.926Z,7.70
2018-10-21T13:48:36.413Z,5.53
2018-10-21T13:53:39.929Z,5.17
2018-10-21T13:58:43.511Z,3.67
2018-10-21T14:03:47.284Z,4.17
2018-10-21T14:08:50.841Z,3.77
2018-10-21T14:13:54.333Z,7.60
2018-10-21T14:18:57.833Z,5.13
2018-10-21T14:24:01.585Z,5.93
2018-10-21T14:29:05.072Z,8.43
2018-10-21T14:34:08.657Z,4.03
2018-10-21T14:39:13.618Z,4.17
2018-10-21T14:44:17.186Z,4.40
2018-10-21T14:49:20.672Z,6.83
2018-10-21T14:54:24.535Z,8.80
2018-10-21T14:59:28.068Z,5.13
2018-10-21T15:04:31.682Z,6.73
2018-10-21T15:09:35.521Z,7.03
2018-10-21T15:14:39.239Z,10.37
2018-10-21T15:19:43.584Z,5.93
2018-10-21T15:24:47.391Z,6.67
2018-10-21T15:29:50.957Z,4.67
2018-10-21T15:34:54.615Z,7.37
2018-10-21T15:39:58.226Z,3.40
2018-10-21T15:45:01.913Z,7.33
2018-10-21T15:50:06.078Z,6.47
2018-10-21T15:55:10.117Z,3.90
2018-10-21T16:00:15.717Z,5.97
2018-10-21T16:05:24.053Z,4.93
2018-10-21T16:10:27.597Z,3.73
2018-10-21T16:15:31.102Z,5.87
2018-10-21T16:20:34.763Z,4.77
2018-10-21T16:25:38.440Z,6.37
2018-10-21T16:30:41.922Z,7.70
2018-10-21T16:35:45.508Z,6.97
2018-10-21T16:40:49.007Z,7.43
2018-10-21T16:45:52.525Z,9.23
2018-10-21T16:50:56.126Z,6.77
2018-10-21T16:55:59.848Z,4.47
2018-10-21T17:01:03.768Z,5.77
2018-10-21T17:06:07.237Z,4.63
2018-10-21T17:11:10.878Z,4.60
2018-10-21T17:16:14.574Z,6.90
2018-10-21T17:21:18.150Z,6.50
2018-10-21T17:26:21.795Z,6.80
2018-10-21T17:31:25.436Z,5.23
2018-10-21T17:36:29.148Z,8.50
2018-10-21T17:41:32.732Z,6.77
2018-10-21T17:46:36.836Z,9.63
2018-10-21T17:51:40.805Z,12.47
2018-10-21T17:56:49.824Z,8.50
2018-10-21T18:01:53.591Z,8.13
2018-10-21T18:06:57.238Z,9.03
2018-10-21T18:12:00.880Z,8.10
2018-10-21T18:17:04.774Z,5.33
2018-10-21T18:22:08.998Z,5.57
2018-10-21T18:27:12.599Z,8.37
2018-10-21T18:32:16.161Z,7.30
2018-10-21T18:37:19.992Z,7.00
2018-10-21T18:42:23.647Z,8.83
2018-10-21T18:47:27.286Z,10.23
2018-10-21T18:52:30.879Z,7.87
2018-10-21T18:57:34.443Z,8.80
2018-10-21T19:02:38.071Z,8.63
2018-10-21T19:07:41.912Z,8.07
2018-10-21T19:12:45.565Z,10.77
2018-10-21T19:17:50.006Z,9.90
2018-10-21T19:22:53.620Z,8.93
2018-10-21T19:27:57.266Z,10.37
2018-10-21T19:33:01.764Z,10.67
2018-10-21T19:38:05.587Z,8.77
2018-10-21T19:43:09.462Z,6.63
2018-10-21T19:48:14.602Z,9.07
2018-10-21T19:53:18.160Z,8.87
2018-10-21T19:58:21.918Z,8.73
2018-10-21T20:03:26.128Z,8.73
2018-10-21T20:08:29.804Z,7.20
2018-10-21T20:13:33.566Z,7.00
2018-10-21T20:18:37.146Z,9.53
2018-10-21T20:23:40.615Z,8.67
2018-10-21T20:28:44.184Z,14.27
2018-10-21T20:33:47.770Z,13.10
2018-10-21T20:38:51.525Z,23.30
2018-10-21T20:43:55.074Z,21.47
2018-10-21T20:48:58.641Z,16.60
2018-10-21T20:54:02.307Z,17.03
2018-10-21T20:59:06.155Z,12.77
2018-10-21T21:04:10.163Z,18.83
2018-10-21T21:09:13.795Z,10.73
2018-10-21T21:14:17.379Z,10.70
2018-10-21T21:19:20.913Z,8.87
2018-10-21T21:24:24.471Z,13.70
2018-10-21T21:29:28.123Z,13.23
2018-10-21T21:34:31.694Z,9.67
2018-10-21T21:39:35.453Z,12.70
2018-10-21T21:44:38.961Z,13.10
2018-10-21T21:49:45.373Z,9.10
2018-10-21T21:54:48.877Z,10.43
2018-10-21T21:59:52.410Z,12.17
2018-10-21T22:04:55.953Z,11.83
2018-10-21T22:09:59.483Z,12.33
2018-10-21T22:15:03.047Z,12.40
2018-10-21T22:20:06.868Z,12.17
2018-10-21T22:25:10.882Z,15.30
2018-10-21T22:35:40.268Z,14.70
2018-10-21T22:40:44.406Z,15.33
2018-10-21T22:45:47.962Z,13.90
2018-10-21T22:50:51.564Z,15.90
2018-10-21T22:55:55.158Z,14.00
2018-10-21T23:00:58.929Z,14.53
2018-10-21T23:06:02.491Z,18.13
2018-10-21T23:11:06.326Z,18.17
2018-10-21T23:16:10.207Z,13.57
2018-10-21T23:21:13.762Z,18.10
2018-10-21T23:26:17.400Z,18.53
2018-10-21T23:31:21.002Z,18.67
2018-10-21T23:36:24.797Z,16.80
2018-10-21T23:41:28.553Z,15.83
2018-10-21T23:46:32.281Z,16.47
2018-10-21T23:51:35.794Z,16.67
2018-10-21T23:56:39.304Z,16.00
